Terminal Aerodrome Forecast
Issued by NWS Memphis, TN

Current Version | Previous Version | Text Only | Print | Product List | Glossary On
Versions: 1 2 3 4 5 6 7 8 9 10 11 12 13 14 15 16 17 18 19 20 21
000
FTUS44 KMEG 010805 AAA
TAFJBR
TAF AMD
KJBR 010805Z 0108/0206 19003KT P6SM BKN035
      TEMPO 0109/0112 4SM BR OVC030
     FM011500 27006KT P6SM OVC030
     FM012100 28008KT P6SM SCT030
     FM020300 30006KT P6SM FEW050=

USA.gov is the U.S. government's official web portal to all federal, state and local government web resources and services.